map of YCD home
YCD - Airport
Location
City:  Nanaimo, British Columbia, Canada
Name:Nanaimo Airport
ICAO:CYCD
IATA:YCD

Details
Type:Airport (Airfield)
Use:Public/Civil
Latitude:4903'16"N (49.054550)
Longitude:12352'14"W (-123.870666)
Elevation:92 ft (28 m)
Variation:16.28E (WMM2015v2 magnetic declination)
-0.11 annual change
Runways:1
Longest:6602 × 150 ft (2012 × 45.5 m), paved

Time
Time Zone:UTC-8 (DST-7)
Local Time:

Weather
METAR:CYCD 041400Z 26004KT 220V280 12SM -SN OVC030 M04/M09 A2968 RMK SC8 CIG RAG SLP052
TAF:CYCD 032339Z 0400/0405 07005KT P6SM BKN060
RMK NXT FCST WILL BE ISSUED AT 041545Z

Related Locations
Nearby:
Farthest:FTU: 10702 mi / 17223 km
Tolagnaro [Maurillac Airport (Fort Dauphin Airport)], MG

Find:

   beyond  
but within

Other Information
Maps:
NOTAMs:
Links:
Sources:

  
  • flag of Canada
  • flag of British Columbia
  

Airport Diagram

Airport diagram for YCD

Airport diagram PDF

Sectional Chart

Flight Planning
at skyvector.com

Satellite Image

Google Maps Satellite view

 

Copyright © 2004-2019 Karl L. Swartz. All rights reserved.
The Great Circle Mapper name and logo are trademarks of the Great Circle Mapper.
All other trademarks mentioned herein belong to their respective owners.
Please see credits for attibutions and further copyright information.

  Follow gcmap on Facebook Follow gcmap on Twitter GCmap on LinkedIn

hCard Microformat

Geo Microformat